createdAt,value
2022-09-18T00:00:19.923Z,100202.63
2022-09-18T00:03:22.853Z,100189.91
2022-09-18T00:06:29.913Z,100194.38
2022-09-18T00:09:32.766Z,100199.78
2022-09-18T00:12:35.845Z,100195.19
2022-09-18T00:15:38.893Z,100196.06
2022-09-18T00:18:42.202Z,100181.53
2022-09-18T00:21:48.207Z,100182.59
2022-09-18T00:24:51.206Z,100191.53
2022-09-18T00:27:53.877Z,100198.84
2022-09-18T00:30:57.064Z,100189.75
2022-09-18T00:34:02.626Z,100189.66
2022-09-18T00:37:06.941Z,100196.94
2022-09-18T00:40:11.350Z,100185.22
2022-09-18T00:43:21.975Z,100187.13
2022-09-18T00:46:30.971Z,100186.25
2022-09-18T00:49:34.593Z,100187.84
2022-09-18T00:52:49.579Z,100179.81
2022-09-18T00:55:52.694Z,100186.25
2022-09-18T00:58:55.460Z,100185.13
2022-09-18T01:02:00.196Z,100188.59
2022-09-18T01:05:03.266Z,100185.75
2022-09-18T01:08:24.160Z,100185.81
2022-09-18T01:11:37.324Z,100190.19
2022-09-18T01:14:45.237Z,100187.47
2022-09-18T01:17:55.611Z,100188.88
2022-09-18T01:21:08.567Z,100187.13
2022-09-18T01:24:40.307Z,100182.66
2022-09-18T01:27:59.221Z,100183.44
2022-09-18T01:31:08.225Z,100186.09
2022-09-18T01:34:16.515Z,100188.59
2022-09-18T01:37:29.262Z,100186.75
2022-09-18T01:40:36.407Z,100183.19
2022-09-18T01:43:42.254Z,100192.09
2022-09-18T01:46:46.784Z,100183.00
2022-09-18T01:49:53.746Z,100184.94
2022-09-18T01:53:04.007Z,100177.59
2022-09-18T01:56:12.437Z,100177.59
2022-09-18T01:59:22.664Z,100183.88
2022-09-18T02:02:32.907Z,100174.75
2022-09-18T02:05:41.172Z,100172.03
2022-09-18T02:08:48.699Z,100176.31
2022-09-18T02:11:56.525Z,100171.91
2022-09-18T02:15:06.394Z,100170.13
2022-09-18T02:18:13.239Z,100174.50
2022-09-18T02:21:19.688Z,100157.22
2022-09-18T02:24:26.056Z,100166.31
2022-09-18T02:27:31.013Z,100172.66
2022-09-18T02:30:35.531Z,100173.63
2022-09-18T02:33:38.805Z,100180.72
2022-09-18T02:36:58.134Z,100184.31
2022-09-18T02:40:18.669Z,100179.91
2022-09-18T02:43:36.796Z,100162.63
2022-09-18T02:46:51.399Z,100172.03
2022-09-18T02:50:02.822Z,100164.72
2022-09-18T02:53:11.887Z,100160.19
2022-09-18T02:56:22.982Z,100169.47
2022-09-18T02:59:29.954Z,100174.94
2022-09-18T03:02:34.605Z,100159.56
2022-09-18T03:05:37.319Z,100156.06
2022-09-18T03:08:40.518Z,100165.97
2022-09-18T03:11:43.364Z,100156.78
2022-09-18T03:14:46.076Z,100151.31
2022-09-18T03:17:50.430Z,100148.44
2022-09-18T03:20:53.731Z,100155.78
2022-09-18T03:23:56.822Z,100159.34
2022-09-18T03:26:59.989Z,100155.91
2022-09-18T03:30:02.800Z,100153.13
2022-09-18T03:33:06.897Z,100154.00
2022-09-18T03:36:10.064Z,100160.06
2022-09-18T03:39:16.056Z,100165.59
2022-09-18T03:42:19.049Z,100167.56
2022-09-18T03:45:22.115Z,100156.78
2022-09-18T03:48:26.162Z,100167.69
2022-09-18T03:51:29.309Z,100160.56
2022-09-18T03:54:33.780Z,100159.72
2022-09-18T03:57:37.542Z,100163.25
2022-09-18T04:00:40.719Z,100154.16
2022-09-18T04:03:45.002Z,100163.25
2022-09-18T04:06:47.676Z,100162.22
2022-09-18T04:09:50.406Z,100162.38
2022-09-18T04:12:53.125Z,100163.09
2022-09-18T04:15:56.213Z,100174.88
2022-09-18T04:19:00.429Z,100168.50
2022-09-18T04:22:03.677Z,100163.91
2022-09-18T04:25:08.060Z,100159.19
2022-09-18T04:28:11.909Z,100152.25
2022-09-18T04:31:15.077Z,100164.53
2022-09-18T04:34:19.112Z,100169.00
2022-09-18T04:37:21.824Z,100169.97
2022-09-18T04:40:24.977Z,100163.66
2022-09-18T04:43:28.966Z,100165.50
2022-09-18T04:46:32.102Z,100171.09
2022-09-18T04:49:36.162Z,100162.94
2022-09-18T04:52:39.311Z,100153.19
2022-09-18T04:55:44.530Z,100162.94
2022-09-18T04:58:47.686Z,100162.88
2022-09-18T05:01:50.821Z,100156.66
2022-09-18T05:04:54.943Z,100159.28
2022-09-18T05:07:59.309Z,100169.25
2022-09-18T05:11:04.852Z,100172.16
2022-09-18T05:14:07.915Z,100169.31
2022-09-18T05:17:11.106Z,100173.94
2022-09-18T05:20:15.947Z,100171.53
2022-09-18T05:23:18.658Z,100179.81
2022-09-18T05:26:21.333Z,100163.47
2022-09-18T05:29:24.403Z,100173.41
2022-09-18T05:32:27.076Z,100185.94
2022-09-18T05:35:32.470Z,100185.00
2022-09-18T05:38:35.201Z,100185.00
2022-09-18T05:41:41.350Z,100168.22
2022-09-18T05:44:46.384Z,100174.91
2022-09-18T05:47:57.103Z,100176.56
2022-09-18T05:51:01.553Z,100171.59
2022-09-18T05:54:05.417Z,100170.00
2022-09-18T05:57:08.490Z,100178.03
2022-09-18T06:00:12.923Z,100162.38
2022-09-18T06:03:17.354Z,100181.41
2022-09-18T06:06:22.164Z,100199.25
2022-09-18T06:09:24.913Z,100195.47
2022-09-18T06:12:28.118Z,100186.38
2022-09-18T06:15:31.558Z,100185.28
2022-09-18T06:18:34.324Z,100188.41
2022-09-18T06:21:38.909Z,100202.72
2022-09-18T06:24:41.750Z,100191.63
2022-09-18T06:27:44.452Z,100189.38
2022-09-18T06:30:47.228Z,100181.75
2022-09-18T06:33:50.551Z,100190.38
2022-09-18T06:36:54.630Z,100194.84
2022-09-18T06:39:57.448Z,100199.13
2022-09-18T06:43:02.126Z,100188.94
2022-09-18T06:46:06.012Z,100194.28
2022-09-18T06:49:08.813Z,100194.06
2022-09-18T06:52:13.004Z,100190.28
2022-09-18T06:55:16.030Z,100191.84
2022-09-18T06:58:19.753Z,100193.41
2022-09-18T07:01:22.612Z,100196.94
2022-09-18T07:04:25.897Z,100196.59
2022-09-18T07:07:30.322Z,100195.72
2022-09-18T07:10:33.285Z,100194.38
2022-09-18T07:13:37.572Z,100190.97
2022-09-18T07:16:40.480Z,100181.06
2022-09-18T07:19:43.287Z,100192.47
2022-09-18T07:22:53.309Z,100195.97
2022-09-18T07:25:56.011Z,100194.69
2022-09-18T07:28:59.133Z,100196.19
2022-09-18T07:32:02.714Z,100193.00
2022-09-18T07:35:06.307Z,100199.47
2022-09-18T07:38:11.244Z,100198.34
2022-09-18T07:41:13.977Z,100198.34
2022-09-18T07:44:16.857Z,100198.91
2022-09-18T07:47:20.273Z,100208.53
2022-09-18T07:50:23.577Z,100206.28
2022-09-18T07:53:29.785Z,100191.75
2022-09-18T07:56:32.626Z,100202.13
2022-09-18T07:59:35.322Z,100201.16
2022-09-18T08:02:38.197Z,100194.63
2022-09-18T08:05:42.242Z,100193.41
2022-09-18T08:08:46.889Z,100203.25
2022-09-18T08:11:52.574Z,100193.69
2022-09-18T08:14:55.489Z,100202.84
2022-09-18T08:17:58.563Z,100194.19
2022-09-18T08:21:01.565Z,100191.34
2022-09-18T08:24:06.084Z,100199.28
2022-09-18T08:27:09.267Z,100203.84
2022-09-18T08:30:14.698Z,100184.44
2022-09-18T08:33:17.425Z,100199.44
2022-09-18T08:36:20.117Z,100195.22
2022-09-18T08:39:24.724Z,100204.44
2022-09-18T08:42:38.270Z,100196.47
2022-09-18T08:45:52.735Z,100186.63
2022-09-18T08:49:07.998Z,100195.91
2022-09-18T08:52:14.915Z,100186.63
2022-09-18T08:55:27.379Z,100188.38
2022-09-18T08:58:34.940Z,100180.19
2022-09-18T09:01:48.264Z,100181.50
2022-09-18T09:04:51.241Z,100180.53
2022-09-18T09:08:09.582Z,100186.56
2022-09-18T09:11:20.949Z,100191.47
2022-09-18T09:14:56.105Z,100184.53
2022-09-18T09:18:10.075Z,100185.94
2022-09-18T09:21:21.853Z,100193.28
2022-09-18T09:24:32.912Z,100192.47
2022-09-18T09:27:41.398Z,100192.34
2022-09-18T09:30:47.598Z,100195.31
2022-09-18T09:33:56.261Z,100186.28
2022-09-18T09:37:02.232Z,100181.59
2022-09-18T09:40:13.534Z,100180.56
2022-09-18T09:43:26.530Z,100176.13
2022-09-18T09:46:44.823Z,100172.38
2022-09-18T09:49:58.255Z,100175.31
2022-09-18T09:53:05.073Z,100164.03
2022-09-18T09:56:15.154Z,100166.25
2022-09-18T09:59:26.978Z,100174.34
2022-09-18T10:02:41.609Z,100161.47
2022-09-18T10:05:53.631Z,100167.50
2022-09-18T10:09:04.101Z,100172.97
2022-09-18T10:12:19.487Z,100167.13
2022-09-18T10:15:29.655Z,100165.28
2022-09-18T10:18:40.091Z,100170.16
2022-09-18T10:21:45.473Z,100157.50
2022-09-18T10:24:55.469Z,100164.63
2022-09-18T10:27:59.086Z,100153.72
2022-09-18T10:31:05.463Z,100165.59
2022-09-18T10:34:32.639Z,100166.66
2022-09-18T10:37:40.326Z,100148.63
2022-09-18T10:40:43.630Z,100162.25
2022-09-18T10:43:55.827Z,100153.59
2022-09-18T10:47:06.643Z,100155.19
2022-09-18T10:50:19.567Z,100139.50
2022-09-18T10:53:29.712Z,100137.00
2022-09-18T10:56:33.398Z,100135.13
2022-09-18T10:59:36.922Z,100128.00
2022-09-18T11:02:47.884Z,100138.84
2022-09-18T11:05:57.347Z,100130.22
2022-09-18T11:09:03.829Z,100126.88
2022-09-18T11:12:16.094Z,100106.97
2022-09-18T11:15:21.657Z,100108.28
2022-09-18T11:18:27.294Z,100094.72
2022-09-18T11:21:30.176Z,100093.00
2022-09-18T11:24:34.811Z,100102.00
2022-09-18T11:27:46.898Z,100074.56
2022-09-18T11:30:58.148Z,100091.91
2022-09-18T11:34:06.452Z,100084.47
2022-09-18T11:37:13.041Z,100081.06
2022-09-18T11:40:22.497Z,100054.97
2022-09-18T11:43:28.513Z,100063.38
2022-09-18T11:46:44.511Z,100076.81
2022-09-18T11:49:52.224Z,100078.56
2022-09-18T11:52:59.618Z,100078.47
2022-09-18T11:56:07.286Z,100072.88
2022-09-18T11:59:16.617Z,100078.44
2022-09-18T12:02:27.970Z,100068.28
2022-09-18T12:05:37.731Z,100061.38
2022-09-18T12:08:50.992Z,100072.63
2022-09-18T12:12:02.800Z,100081.38
2022-09-18T12:15:14.030Z,100072.88
2022-09-18T12:18:21.352Z,100061.38
2022-09-18T12:21:39.263Z,100058.00
2022-09-18T12:24:42.507Z,100059.09
2022-09-18T12:27:50.545Z,100063.66
2022-09-18T12:31:02.200Z,100046.63
2022-09-18T12:34:12.917Z,100050.56
2022-09-18T12:37:31.791Z,100066.47
2022-09-18T12:40:58.580Z,100072.50
2022-09-18T12:44:29.477Z,100077.19
2022-09-18T12:47:47.041Z,100073.47
2022-09-18T12:51:04.548Z,100080.94
2022-09-18T12:54:31.041Z,100075.81
2022-09-18T12:57:47.467Z,100066.84
2022-09-18T13:00:53.205Z,100068.97
2022-09-18T13:04:06.401Z,100067.59
2022-09-18T13:07:17.164Z,100064.75
2022-09-18T13:10:24.422Z,100067.41
2022-09-18T13:13:38.034Z,100064.88
2022-09-18T13:16:50.171Z,100057.09
2022-09-18T13:19:59.064Z,100060.75
2022-09-18T13:23:03.184Z,100053.72
2022-09-18T13:26:11.933Z,100049.97
2022-09-18T13:29:52.593Z,100042.41
2022-09-18T13:32:57.044Z,100047.06
2022-09-18T13:36:00.012Z,100030.81
2022-09-18T13:39:06.370Z,100036.34
2022-09-18T13:42:10.593Z,100039.19
2022-09-18T13:45:21.035Z,100031.13
2022-09-18T13:48:28.159Z,100025.09
2022-09-18T13:51:36.172Z,100026.94
2022-09-18T13:54:39.541Z,100022.34
2022-09-18T13:57:45.223Z,100020.31
2022-09-18T14:00:48.066Z,100016.31
2022-09-18T14:03:51.172Z,100023.09
2022-09-18T14:06:54.067Z,100023.09
2022-09-18T14:10:03.938Z,100020.97
2022-09-18T14:13:25.440Z,100025.03
2022-09-18T14:16:33.148Z,100011.31
2022-09-18T14:19:37.889Z,100023.28
2022-09-18T14:22:41.264Z,100034.47
2022-09-18T14:25:46.057Z,100029.53
2022-09-18T14:28:50.470Z,100040.28
2022-09-18T14:31:55.377Z,100035.22
2022-09-18T14:35:25.893Z,100041.06
2022-09-18T14:38:34.591Z,100049.94
2022-09-18T14:41:38.241Z,100043.00
2022-09-18T14:44:48.653Z,100053.31
2022-09-18T14:47:52.209Z,100050.03
2022-09-18T14:51:03.870Z,100052.34
2022-09-18T14:54:20.054Z,100057.97
2022-09-18T14:57:27.023Z,100060.09
2022-09-18T15:00:33.304Z,100053.38
2022-09-18T15:03:39.813Z,100057.31
2022-09-18T15:06:46.740Z,100041.22
2022-09-18T15:09:52.924Z,100044.91
2022-09-18T15:12:57.842Z,100038.56
2022-09-18T15:16:04.622Z,100042.34
2022-09-18T15:19:18.237Z,100028.97
2022-09-18T15:22:22.935Z,100031.06
2022-09-18T15:25:31.756Z,100023.88
2022-09-18T15:28:37.425Z,100033.00
2022-09-18T15:31:42.322Z,100027.69
2022-09-18T15:34:49.832Z,100024.25
2022-09-18T15:37:55.040Z,100018.91
2022-09-18T15:40:57.826Z,100017.94
2022-09-18T15:44:01.835Z,100010.75
2022-09-18T15:47:35.012Z,100008.22
2022-09-18T15:50:43.563Z,99999.53
2022-09-18T15:54:05.270Z,100000.25
2022-09-18T15:57:15.907Z,100002.25
2022-09-18T16:00:19.365Z,100007.72
2022-09-18T16:03:24.427Z,99996.94
2022-09-18T16:06:32.275Z,100000.81
2022-09-18T16:09:42.325Z,99997.28
2022-09-18T16:12:45.546Z,99997.28
2022-09-18T16:15:50.323Z,99996.41
2022-09-18T16:18:57.127Z,99982.94
2022-09-18T16:22:10.741Z,99988.66
2022-09-18T16:25:20.273Z,99991.44
2022-09-18T16:28:26.109Z,99980.78
2022-09-18T16:31:30.926Z,99986.47
2022-09-18T16:34:35.018Z,99985.72
2022-09-18T16:37:41.258Z,99986.84
2022-09-18T16:40:44.471Z,99992.38
2022-09-18T16:43:47.245Z,99989.88
2022-09-18T16:46:53.180Z,99987.31
2022-09-18T16:49:57.304Z,99991.28
2022-09-18T16:53:01.584Z,99996.81
2022-09-18T16:56:08.138Z,99999.91
2022-09-18T16:59:11.469Z,99998.16
2022-09-18T17:02:18.113Z,100002.88
2022-09-18T17:05:22.326Z,100003.25
2022-09-18T17:08:25.669Z,99993.50
2022-09-18T17:11:28.524Z,99996.41
2022-09-18T17:14:31.609Z,100000.09
2022-09-18T17:17:34.455Z,100003.06
2022-09-18T17:20:38.549Z,100004.03
2022-09-18T17:23:41.317Z,100005.16
2022-09-18T17:26:44.249Z,100007.34
2022-09-18T17:29:46.968Z,100008.59
2022-09-18T17:32:50.252Z,100007.88
2022-09-18T17:35:54.306Z,100015.31
2022-09-18T17:39:01.772Z,99995.88
2022-09-18T17:42:05.437Z,99994.38
2022-09-18T17:45:09.386Z,99998.78
2022-09-18T17:48:12.315Z,100004.63
2022-09-18T17:51:18.669Z,100008.75
2022-09-18T17:54:21.396Z,100000.69
2022-09-18T17:57:24.184Z,99999.97
2022-09-18T18:00:27.176Z,100000.94
2022-09-18T18:03:30.098Z,99999.50
2022-09-18T18:06:34.608Z,99996.34
2022-09-18T18:09:38.009Z,100002.66
2022-09-18T18:12:41.028Z,99992.16
2022-09-18T18:15:43.737Z,100002.84
2022-09-18T18:18:46.440Z,100003.50
2022-09-18T18:21:50.568Z,100008.84
2022-09-18T18:24:53.224Z,100016.28
2022-09-18T18:27:56.170Z,100026.50
2022-09-18T18:31:03.035Z,100027.72
2022-09-18T18:34:05.861Z,100035.31
2022-09-18T18:37:09.883Z,100035.53
2022-09-18T18:40:13.203Z,100043.28
2022-09-18T18:43:15.906Z,100041.91
2022-09-18T18:46:18.645Z,100042.94
2022-09-18T18:49:21.801Z,100035.81
2022-09-18T18:52:26.353Z,100043.25
2022-09-18T18:55:29.078Z,100040.44
2022-09-18T18:58:32.644Z,100037.03
2022-09-18T19:01:35.757Z,100030.47
2022-09-18T19:04:40.472Z,100031.13
2022-09-18T19:07:44.619Z,100030.97
2022-09-18T19:10:56.475Z,100017.81
2022-09-18T19:14:00.153Z,100017.41
2022-09-18T19:17:03.024Z,100021.66
2022-09-18T19:20:06.446Z,100016.81
2022-09-18T19:23:13.272Z,100022.94
2022-09-18T19:26:16.013Z,100025.31
2022-09-18T19:29:22.008Z,100024.44
2022-09-18T19:32:24.846Z,100036.25
2022-09-18T19:35:27.534Z,100033.53
2022-09-18T19:38:35.200Z,100029.13
2022-09-18T19:41:42.048Z,100023.63
2022-09-18T19:44:48.796Z,100033.66
2022-09-18T19:47:52.083Z,100036.16
2022-09-18T19:50:55.721Z,100024.59
2022-09-18T19:53:59.829Z,100027.09
2022-09-18T19:57:03.008Z,100026.53
2022-09-18T20:00:06.633Z,100027.00
2022-09-18T20:03:10.669Z,100031.53
2022-09-18T20:06:13.618Z,100032.41
2022-09-18T20:09:17.786Z,100098.28
2022-09-18T20:12:20.722Z,100102.03
2022-09-18T20:15:23.932Z,100092.19
2022-09-18T20:18:26.680Z,100101.88
2022-09-18T20:21:29.841Z,100129.50
2022-09-18T20:24:34.374Z,100134.78
2022-09-18T20:27:39.391Z,100134.06
2022-09-18T20:30:42.076Z,100105.75
2022-09-18T20:33:45.511Z,100131.63
2022-09-18T20:36:49.526Z,100128.50
2022-09-18T20:39:54.369Z,100138.16
2022-09-18T20:42:57.072Z,100135.28
2022-09-18T20:46:01.060Z,100133.00
2022-09-18T20:49:03.852Z,100129.22
2022-09-18T20:52:10.316Z,100139.66
2022-09-18T20:55:18.281Z,100133.81
2022-09-18T20:58:21.554Z,100122.50
2022-09-18T21:01:26.418Z,100124.00
2022-09-18T21:04:29.748Z,100147.00
2022-09-18T21:07:33.177Z,100160.81
2022-09-18T21:10:46.958Z,100157.13
2022-09-18T21:13:53.493Z,100152.53
2022-09-18T21:16:56.750Z,100159.72
2022-09-18T21:19:59.422Z,100156.06
2022-09-18T21:23:20.284Z,100155.25
2022-09-18T21:26:25.799Z,100144.47
2022-09-18T21:29:30.096Z,100151.59
2022-09-18T21:32:32.738Z,100147.13
2022-09-18T21:35:35.637Z,100129.06
2022-09-18T21:38:40.128Z,100107.09
2022-09-18T21:41:46.508Z,100115.69
2022-09-18T21:44:49.909Z,100126.50
2022-09-18T21:47:52.722Z,100114.00
2022-09-18T21:50:55.754Z,100114.91
2022-09-18T21:53:59.073Z,100112.03
2022-09-18T21:57:03.738Z,100121.97
2022-09-18T22:00:09.043Z,100110.50
2022-09-18T22:03:12.543Z,100114.25
2022-09-18T22:06:15.207Z,100122.69
2022-09-18T22:09:20.541Z,100123.13
2022-09-18T22:12:25.090Z,100118.94
2022-09-18T22:15:27.750Z,100138.22
2022-09-18T22:18:30.865Z,100128.88
2022-09-18T22:21:35.856Z,100126.66
2022-09-18T22:24:38.965Z,100127.91
2022-09-18T22:27:43.727Z,100121.09
2022-09-18T22:30:46.853Z,100132.09
2022-09-18T22:33:53.565Z,100140.56
2022-09-18T22:36:57.415Z,100149.50
2022-09-18T22:40:00.301Z,100137.13
2022-09-18T22:43:04.771Z,100138.25
2022-09-18T22:46:10.347Z,100137.53
2022-09-18T22:49:14.856Z,100142.34
2022-09-18T22:52:17.665Z,100146.16
2022-09-18T22:55:20.397Z,100137.81
2022-09-18T22:58:25.113Z,100159.22
2022-09-18T23:01:32.274Z,100165.69
2022-09-18T23:04:37.148Z,100157.81
2022-09-18T23:07:39.925Z,100169.50
2022-09-18T23:10:42.733Z,100177.72
2022-09-18T23:13:51.379Z,100179.69
2022-09-18T23:16:55.534Z,100180.59
2022-09-18T23:19:58.229Z,100178.06
2022-09-18T23:23:01.449Z,100178.94
2022-09-18T23:26:08.981Z,100179.81
2022-09-18T23:29:15.156Z,100159.31
2022-09-18T23:32:18.645Z,100178.72
2022-09-18T23:35:21.474Z,100181.25
2022-09-18T23:38:24.363Z,100175.53
2022-09-18T23:41:29.702Z,100186.09
2022-09-18T23:44:34.831Z,100177.00
2022-09-18T23:47:38.151Z,100190.59
2022-09-18T23:50:43.587Z,100192.13
2022-09-18T23:53:46.278Z,100205.34
2022-09-18T23:56:49.987Z,100202.47
2022-09-18T23:59:54.122Z,100206.75
